sensor_id;sensor_type;location;lat;lon;timestamp;P1;durP1;ratioP1;P2;durP2;ratioP2
23588;SDS011;11972;48.078;11.876;2023-02-01T00:02:40;2.75;;;1.70;;
23588;SDS011;11972;48.078;11.876;2023-02-01T00:06:41;1.90;;;1.58;;
23588;SDS011;11972;48.078;11.876;2023-02-01T00:10:41;4.50;;;1.83;;
23588;SDS011;11972;48.078;11.876;2023-02-01T00:14:41;2.50;;;1.67;;
23588;SDS011;11972;48.078;11.876;2023-02-01T00:18:42;2.28;;;2.08;;
23588;SDS011;11972;48.078;11.876;2023-02-01T00:22:43;1.92;;;1.73;;
23588;SDS011;11972;48.078;11.876;2023-02-01T00:26:44;1.77;;;1.60;;
23588;SDS011;11972;48.078;11.876;2023-02-01T00:30:45;2.10;;;1.75;;
23588;SDS011;11972;48.078;11.876;2023-02-01T00:34:45;1.95;;;1.80;;
23588;SDS011;11972;48.078;11.876;2023-02-01T00:38:45;2.83;;;1.50;;
23588;SDS011;11972;48.078;11.876;2023-02-01T00:42:46;1.48;;;1.33;;
23588;SDS011;11972;48.078;11.876;2023-02-01T00:46:46;2.53;;;1.77;;
23588;SDS011;11972;48.078;11.876;2023-02-01T00:50:46;1.95;;;1.60;;
23588;SDS011;11972;48.078;11.876;2023-02-01T00:54:47;1.83;;;1.30;;
23588;SDS011;11972;48.078;11.876;2023-02-01T00:58:47;1.85;;;1.65;;
23588;SDS011;11972;48.078;11.876;2023-02-01T01:02:48;3.45;;;1.83;;
23588;SDS011;11972;48.078;11.876;2023-02-01T01:06:48;2.47;;;1.77;;
23588;SDS011;11972;48.078;11.876;2023-02-01T01:10:48;1.52;;;1.40;;
23588;SDS011;11972;48.078;11.876;2023-02-01T01:14:49;3.10;;;2.10;;
23588;SDS011;11972;48.078;11.876;2023-02-01T01:18:49;2.53;;;2.28;;
23588;SDS011;11972;48.078;11.876;2023-02-01T01:22:50;2.53;;;1.90;;
23588;SDS011;11972;48.078;11.876;2023-02-01T01:26:50;3.17;;;1.83;;
23588;SDS011;11972;48.078;11.876;2023-02-01T01:30:50;3.92;;;2.35;;
23588;SDS011;11972;48.078;11.876;2023-02-01T01:34:51;2.60;;;2.05;;
23588;SDS011;11972;48.078;11.876;2023-02-01T01:38:51;2.47;;;2.13;;
23588;SDS011;11972;48.078;11.876;2023-02-01T01:42:52;3.85;;;2.40;;
23588;SDS011;11972;48.078;11.876;2023-02-01T01:46:54;2.97;;;2.03;;
23588;SDS011;11972;48.078;11.876;2023-02-01T01:50:56;2.15;;;1.95;;
23588;SDS011;11972;48.078;11.876;2023-02-01T01:55:00;2.20;;;1.80;;
23588;SDS011;11972;48.078;11.876;2023-02-01T01:59:01;2.28;;;2.08;;
23588;SDS011;11972;48.078;11.876;2023-02-01T02:03:11;2.60;;;1.92;;
23588;SDS011;11972;48.078;11.876;2023-02-01T02:07:15;2.03;;;1.92;;
23588;SDS011;11972;48.078;11.876;2023-02-01T02:11:19;3.20;;;2.60;;
23588;SDS011;11972;48.078;11.876;2023-02-01T02:15:20;3.10;;;2.30;;
23588;SDS011;11972;48.078;11.876;2023-02-01T02:19:32;3.30;;;3.00;;
23588;SDS011;11972;48.078;11.876;2023-02-01T02:23:52;3.30;;;3.00;;
23588;SDS011;11972;48.078;11.876;2023-02-01T02:37:31;3.25;;;2.95;;
23588;SDS011;11972;48.078;11.876;2023-02-01T02:41:54;3.72;;;3.28;;
23588;SDS011;11972;48.078;11.876;2023-02-01T02:46:24;3.20;;;2.90;;
23588;SDS011;11972;48.078;11.876;2023-02-01T02:50:51;3.22;;;2.92;;
23588;SDS011;11972;48.078;11.876;2023-02-01T02:55:18;4.07;;;3.50;;
23588;SDS011;11972;48.078;11.876;2023-02-01T02:59:21;3.15;;;2.85;;
23588;SDS011;11972;48.078;11.876;2023-02-01T03:03:42;4.40;;;3.00;;
23588;SDS011;11972;48.078;11.876;2023-02-01T03:08:15;3.13;;;2.88;;
23588;SDS011;11972;48.078;11.876;2023-02-01T03:16:39;3.35;;;2.70;;
23588;SDS011;11972;48.078;11.876;2023-02-01T03:20:57;3.95;;;2.90;;
23588;SDS011;11972;48.078;11.876;2023-02-01T03:25:10;3.88;;;3.20;;
23588;SDS011;11972;48.078;11.876;2023-02-01T03:29:17;3.45;;;2.58;;
23588;SDS011;11972;48.078;11.876;2023-02-01T03:33:21;2.88;;;2.65;;
23588;SDS011;11972;48.078;11.876;2023-02-01T03:37:25;2.95;;;2.75;;
23588;SDS011;11972;48.078;11.876;2023-02-01T03:41:28;1.80;;;1.70;;
23588;SDS011;11972;48.078;11.876;2023-02-01T03:45:36;4.05;;;2.40;;
23588;SDS011;11972;48.078;11.876;2023-02-01T03:49:43;2.70;;;2.50;;
23588;SDS011;11972;48.078;11.876;2023-02-01T03:53:47;2.63;;;2.42;;
23588;SDS011;11972;48.078;11.876;2023-02-01T03:57:51;2.95;;;2.03;;
23588;SDS011;11972;48.078;11.876;2023-02-01T04:01:57;2.90;;;2.20;;
23588;SDS011;11972;48.078;11.876;2023-02-01T04:05:57;3.13;;;2.10;;
23588;SDS011;11972;48.078;11.876;2023-02-01T04:09:57;2.53;;;2.00;;
23588;SDS011;11972;48.078;11.876;2023-02-01T04:13:57;2.20;;;2.00;;
23588;SDS011;11972;48.078;11.876;2023-02-01T04:17:58;1.90;;;1.60;;
23588;SDS011;11972;48.078;11.876;2023-02-01T04:21:58;2.25;;;2.05;;
23588;SDS011;11972;48.078;11.876;2023-02-01T04:25:59;2.95;;;2.03;;
23588;SDS011;11972;48.078;11.876;2023-02-01T04:30:01;2.20;;;2.00;;
23588;SDS011;11972;48.078;11.876;2023-02-01T04:34:03;2.47;;;1.80;;
23588;SDS011;11972;48.078;11.876;2023-02-01T04:38:03;2.20;;;1.83;;
23588;SDS011;11972;48.078;11.876;2023-02-01T04:42:03;2.33;;;1.70;;
23588;SDS011;11972;48.078;11.876;2023-02-01T04:46:04;2.63;;;2.42;;
23588;SDS011;11972;48.078;11.876;2023-02-01T04:50:04;2.08;;;1.92;;
23588;SDS011;11972;48.078;11.876;2023-02-01T04:54:05;2.63;;;2.00;;
23588;SDS011;11972;48.078;11.876;2023-02-01T04:58:06;2.30;;;2.10;;
23588;SDS011;11972;48.078;11.876;2023-02-01T05:02:07;3.55;;;2.38;;
23588;SDS011;11972;48.078;11.876;2023-02-01T05:06:07;3.20;;;2.08;;
23588;SDS011;11972;48.078;11.876;2023-02-01T05:10:08;2.25;;;1.92;;
23588;SDS011;11972;48.078;11.876;2023-02-01T05:14:08;2.20;;;2.00;;
23588;SDS011;11972;48.078;11.876;2023-02-01T05:18:09;2.83;;;2.42;;
23588;SDS011;11972;48.078;11.876;2023-02-01T05:22:09;2.33;;;2.13;;
23588;SDS011;11972;48.078;11.876;2023-02-01T05:26:09;2.90;;;2.60;;
23588;SDS011;11972;48.078;11.876;2023-02-01T05:30:10;3.05;;;2.10;;
23588;SDS011;11972;48.078;11.876;2023-02-01T05:34:11;2.17;;;1.98;;
23588;SDS011;11972;48.078;11.876;2023-02-01T05:38:11;3.05;;;2.72;;
23588;SDS011;11972;48.078;11.876;2023-02-01T05:42:11;2.90;;;2.47;;
23588;SDS011;11972;48.078;11.876;2023-02-01T05:46:12;3.03;;;2.72;;
23588;SDS011;11972;48.078;11.876;2023-02-01T05:50:13;3.25;;;2.35;;
23588;SDS011;11972;48.078;11.876;2023-02-01T05:54:13;2.92;;;2.65;;
23588;SDS011;11972;48.078;11.876;2023-02-01T05:58:14;3.38;;;2.25;;
23588;SDS011;11972;48.078;11.876;2023-02-01T06:02:15;3.35;;;2.80;;
23588;SDS011;11972;48.078;11.876;2023-02-01T06:06:16;2.80;;;2.55;;
23588;SDS011;11972;48.078;11.876;2023-02-01T06:10:17;2.50;;;2.30;;
23588;SDS011;11972;48.078;11.876;2023-02-01T06:14:18;2.75;;;2.05;;
23588;SDS011;11972;48.078;11.876;2023-02-01T06:18:18;3.53;;;2.55;;
23588;SDS011;11972;48.078;11.876;2023-02-01T06:22:19;2.15;;;1.95;;
23588;SDS011;11972;48.078;11.876;2023-02-01T06:26:19;2.80;;;2.60;;
23588;SDS011;11972;48.078;11.876;2023-02-01T06:30:20;2.90;;;2.30;;
23588;SDS011;11972;48.078;11.876;2023-02-01T06:34:20;3.55;;;3.05;;
23588;SDS011;11972;48.078;11.876;2023-02-01T06:38:22;2.90;;;2.70;;
23588;SDS011;11972;48.078;11.876;2023-02-01T06:42:23;3.05;;;2.80;;
23588;SDS011;11972;48.078;11.876;2023-02-01T06:46:23;3.35;;;2.90;;
23588;SDS011;11972;48.078;11.876;2023-02-01T06:50:23;3.25;;;3.00;;
23588;SDS011;11972;48.078;11.876;2023-02-01T06:54:24;4.65;;;3.00;;
23588;SDS011;11972;48.078;11.876;2023-02-01T06:58:27;3.75;;;2.45;;
23588;SDS011;11972;48.078;11.876;2023-02-01T07:02:28;2.92;;;2.72;;
23588;SDS011;11972;48.078;11.876;2023-02-01T07:06:29;2.83;;;2.42;;
23588;SDS011;11972;48.078;11.876;2023-02-01T07:10:29;4.00;;;3.20;;
23588;SDS011;11972;48.078;11.876;2023-02-01T07:14:30;2.63;;;2.42;;
23588;SDS011;11972;48.078;11.876;2023-02-01T07:18:30;4.28;;;2.47;;
23588;SDS011;11972;48.078;11.876;2023-02-01T07:22:31;2.28;;;2.03;;
23588;SDS011;11972;48.078;11.876;2023-02-01T07:26:32;2.22;;;2.03;;
23588;SDS011;11972;48.078;11.876;2023-02-01T07:30:32;2.38;;;2.08;;
23588;SDS011;11972;48.078;11.876;2023-02-01T07:34:32;2.78;;;2.30;;
23588;SDS011;11972;48.078;11.876;2023-02-01T07:38:33;3.30;;;2.17;;
23588;SDS011;11972;48.078;11.876;2023-02-01T07:42:34;1.80;;;1.70;;
23588;SDS011;11972;48.078;11.876;2023-02-01T07:46:34;2.33;;;1.83;;
23588;SDS011;11972;48.078;11.876;2023-02-01T07:50:35;2.65;;;1.90;;
23588;SDS011;11972;48.078;11.876;2023-02-01T07:54:36;1.95;;;1.70;;
23588;SDS011;11972;48.078;11.876;2023-02-01T07:58:36;1.88;;;1.50;;
23588;SDS011;11972;48.078;11.876;2023-02-01T08:02:37;1.58;;;1.42;;
23588;SDS011;11972;48.078;11.876;2023-02-01T08:06:37;1.95;;;1.73;;
23588;SDS011;11972;48.078;11.876;2023-02-01T08:10:38;1.40;;;1.30;;
23588;SDS011;11972;48.078;11.876;2023-02-01T08:14:40;3.13;;;1.60;;
23588;SDS011;11972;48.078;11.876;2023-02-01T08:18:40;2.10;;;1.90;;
23588;SDS011;11972;48.078;11.876;2023-02-01T08:22:41;2.67;;;1.60;;
23588;SDS011;11972;48.078;11.876;2023-02-01T08:26:42;2.30;;;1.88;;
23588;SDS011;11972;48.078;11.876;2023-02-01T08:30:42;2.05;;;1.42;;
23588;SDS011;11972;48.078;11.876;2023-02-01T08:34:42;1.77;;;1.60;;
23588;SDS011;11972;48.078;11.876;2023-02-01T08:38:43;2.30;;;1.60;;
23588;SDS011;11972;48.078;11.876;2023-02-01T08:42:43;11.05;;;3.83;;
23588;SDS011;11972;48.078;11.876;2023-02-01T08:46:53;2.28;;;1.92;;
23588;SDS011;11972;48.078;11.876;2023-02-01T08:50:53;2.40;;;1.80;;
23588;SDS011;11972;48.078;11.876;2023-02-01T08:54:53;1.48;;;1.38;;
23588;SDS011;11972;48.078;11.876;2023-02-01T08:58:54;1.65;;;1.50;;
23588;SDS011;11972;48.078;11.876;2023-02-01T09:02:55;1.58;;;1.40;;
23588;SDS011;11972;48.078;11.876;2023-02-01T09:06:55;3.20;;;1.42;;
23588;SDS011;11972;48.078;11.876;2023-02-01T09:10:59;2.03;;;1.70;;
23588;SDS011;11972;48.078;11.876;2023-02-01T09:15:01;1.50;;;1.35;;
23588;SDS011;11972;48.078;11.876;2023-02-01T09:19:01;1.60;;;1.40;;
23588;SDS011;11972;48.078;11.876;2023-02-01T09:23:02;1.70;;;1.42;;
23588;SDS011;11972;48.078;11.876;2023-02-01T09:27:02;1.30;;;1.20;;
23588;SDS011;11972;48.078;11.876;2023-02-01T09:31:03;1.63;;;1.35;;
23588;SDS011;11972;48.078;11.876;2023-02-01T09:35:03;2.85;;;1.30;;
23588;SDS011;11972;48.078;11.876;2023-02-01T09:39:04;1.30;;;1.13;;
23588;SDS011;11972;48.078;11.876;2023-02-01T09:47:22;1.90;;;1.17;;
23588;SDS011;11972;48.078;11.876;2023-02-01T09:51:25;2.42;;;1.30;;
23588;SDS011;11972;48.078;11.876;2023-02-01T09:55:41;1.90;;;1.10;;
23588;SDS011;11972;48.078;11.876;2023-02-01T09:59:44;1.80;;;1.27;;
23588;SDS011;11972;48.078;11.876;2023-02-01T10:03:49;1.30;;;1.20;;
23588;SDS011;11972;48.078;11.876;2023-02-01T10:08:03;1.30;;;1.02;;
23588;SDS011;11972;48.078;11.876;2023-02-01T10:25:30;2.85;;;1.27;;
23588;SDS011;11972;48.078;11.876;2023-02-01T10:29:59;1.48;;;1.10;;
23588;SDS011;11972;48.078;11.876;2023-02-01T10:34:11;1.55;;;1.17;;
23588;SDS011;11972;48.078;11.876;2023-02-01T10:38:27;1.27;;;0.98;;
23588;SDS011;11972;48.078;11.876;2023-02-01T10:42:29;1.42;;;1.10;;
23588;SDS011;11972;48.078;11.876;2023-02-01T10:46:31;1.48;;;1.17;;
23588;SDS011;11972;48.078;11.876;2023-02-01T10:50:34;3.15;;;1.30;;
23588;SDS011;11972;48.078;11.876;2023-02-01T10:54:39;1.10;;;1.00;;
23588;SDS011;11972;48.078;11.876;2023-02-01T10:58:44;1.55;;;1.00;;
23588;SDS011;11972;48.078;11.876;2023-02-01T11:02:46;1.50;;;1.00;;
23588;SDS011;11972;48.078;11.876;2023-02-01T11:06:47;1.67;;;0.98;;
23588;SDS011;11972;48.078;11.876;2023-02-01T11:10:58;1.42;;;0.95;;
23588;SDS011;11972;48.078;11.876;2023-02-01T11:15:03;1.20;;;1.10;;
23588;SDS011;11972;48.078;11.876;2023-02-01T11:19:14;1.10;;;1.00;;
23588;SDS011;11972;48.078;11.876;2023-02-01T11:23:16;3.10;;;1.10;;
23588;SDS011;11972;48.078;11.876;2023-02-01T11:27:20;1.50;;;1.10;;
23588;SDS011;11972;48.078;11.876;2023-02-01T11:31:23;1.35;;;1.10;;
23588;SDS011;11972;48.078;11.876;2023-02-01T11:35:24;1.40;;;1.30;;
23588;SDS011;11972;48.078;11.876;2023-02-01T11:39:29;1.30;;;1.20;;
23588;SDS011;11972;48.078;11.876;2023-02-01T11:43:31;1.63;;;1.40;;
23588;SDS011;11972;48.078;11.876;2023-02-01T11:47:38;3.22;;;1.38;;
23588;SDS011;11972;48.078;11.876;2023-02-01T12:26:41;2.97;;;1.75;;
23588;SDS011;11972;48.078;11.876;2023-02-01T12:35:13;2.45;;;2.15;;
23588;SDS011;11972;48.078;11.876;2023-02-01T12:39:31;2.83;;;1.85;;
23588;SDS011;11972;48.078;11.876;2023-02-01T12:43:53;2.65;;;1.67;;
23588;SDS011;11972;48.078;11.876;2023-02-01T12:48:06;2.90;;;1.60;;
23588;SDS011;11972;48.078;11.876;2023-02-01T12:52:11;5.25;;;2.10;;
23588;SDS011;11972;48.078;11.876;2023-02-01T12:56:47;2.83;;;2.10;;
23588;SDS011;11972;48.078;11.876;2023-02-01T13:05:37;3.15;;;1.65;;
23588;SDS011;11972;48.078;11.876;2023-02-01T13:14:33;3.58;;;1.73;;
23588;SDS011;11972;48.078;11.876;2023-02-01T13:18:38;3.95;;;1.70;;
23588;SDS011;11972;48.078;11.876;2023-02-01T13:23:05;3.17;;;1.80;;
23588;SDS011;11972;48.078;11.876;2023-02-01T13:27:16;2.80;;;1.77;;
23588;SDS011;11972;48.078;11.876;2023-02-01T13:44:39;2.97;;;1.42;;
23588;SDS011;11972;48.078;11.876;2023-02-01T13:48:49;2.42;;;1.40;;
23588;SDS011;11972;48.078;11.876;2023-02-01T13:52:54;3.58;;;1.60;;
23588;SDS011;11972;48.078;11.876;2023-02-01T13:56:57;1.98;;;1.55;;
23588;SDS011;11972;48.078;11.876;2023-02-01T14:09:31;2.80;;;1.58;;
23588;SDS011;11972;48.078;11.876;2023-02-01T14:13:37;2.05;;;1.73;;
23588;SDS011;11972;48.078;11.876;2023-02-01T14:17:41;1.77;;;1.50;;
23588;SDS011;11972;48.078;11.876;2023-02-01T14:21:51;1.75;;;1.30;;
23588;SDS011;11972;48.078;11.876;2023-02-01T14:30:07;2.17;;;1.60;;
23588;SDS011;11972;48.078;11.876;2023-02-01T14:34:16;3.80;;;1.90;;
23588;SDS011;11972;48.078;11.876;2023-02-01T14:38:19;3.08;;;2.00;;
23588;SDS011;11972;48.078;11.876;2023-02-01T14:51:04;2.35;;;1.52;;
23588;SDS011;11972;48.078;11.876;2023-02-01T14:56:08;2.13;;;1.48;;
23588;SDS011;11972;48.078;11.876;2023-02-01T14:59:41;3.22;;;1.20;;
23588;SDS011;11972;48.078;11.876;2023-02-01T15:04:01;3.15;;;1.80;;
23588;SDS011;11972;48.078;11.876;2023-02-01T15:08:12;3.10;;;1.70;;
23588;SDS011;11972;48.078;11.876;2023-02-01T15:12:26;3.10;;;1.45;;
23588;SDS011;11972;48.078;11.876;2023-02-01T15:16:31;2.67;;;1.40;;
23588;SDS011;11972;48.078;11.876;2023-02-01T15:20:32;2.78;;;1.40;;
23588;SDS011;11972;48.078;11.876;2023-02-01T15:24:33;3.63;;;1.33;;
23588;SDS011;11972;48.078;11.876;2023-02-01T15:28:33;4.85;;;1.98;;
23588;SDS011;11972;48.078;11.876;2023-02-01T15:32:35;2.08;;;1.23;;
23588;SDS011;11972;48.078;11.876;2023-02-01T15:36:41;3.88;;;1.50;;
23588;SDS011;11972;48.078;11.876;2023-02-01T15:45:16;3.65;;;1.70;;
23588;SDS011;11972;48.078;11.876;2023-02-01T15:49:25;3.28;;;1.17;;
23588;SDS011;11972;48.078;11.876;2023-02-01T15:53:28;3.38;;;1.30;;
23588;SDS011;11972;48.078;11.876;2023-02-01T15:57:32;4.18;;;1.48;;
23588;SDS011;11972;48.078;11.876;2023-02-01T16:01:36;3.20;;;2.30;;
23588;SDS011;11972;48.078;11.876;2023-02-01T16:05:39;5.00;;;1.38;;
23588;SDS011;11972;48.078;11.876;2023-02-01T16:09:51;4.45;;;1.90;;
23588;SDS011;11972;48.078;11.876;2023-02-01T16:13:54;3.75;;;2.03;;
23588;SDS011;11972;48.078;11.876;2023-02-01T16:17:54;2.75;;;1.90;;
23588;SDS011;11972;48.078;11.876;2023-02-01T16:21:55;3.60;;;1.90;;
23588;SDS011;11972;48.078;11.876;2023-02-01T16:25:56;3.15;;;1.30;;
23588;SDS011;11972;48.078;11.876;2023-02-01T16:29:56;2.08;;;1.35;;
23588;SDS011;11972;48.078;11.876;2023-02-01T16:33:57;5.25;;;1.90;;
23588;SDS011;11972;48.078;11.876;2023-02-01T16:37:57;3.00;;;1.58;;
23588;SDS011;11972;48.078;11.876;2023-02-01T16:41:58;5.57;;;1.40;;
23588;SDS011;11972;48.078;11.876;2023-02-01T16:45:59;4.03;;;1.10;;
23588;SDS011;11972;48.078;11.876;2023-02-01T16:50:02;3.15;;;1.00;;
23588;SDS011;11972;48.078;11.876;2023-02-01T16:54:03;4.13;;;1.40;;
23588;SDS011;11972;48.078;11.876;2023-02-01T16:58:04;4.15;;;1.70;;
23588;SDS011;11972;48.078;11.876;2023-02-01T17:02:04;7.55;;;1.60;;
23588;SDS011;11972;48.078;11.876;2023-02-01T17:06:05;3.30;;;1.17;;
23588;SDS011;11972;48.078;11.876;2023-02-01T17:10:11;3.47;;;1.58;;
23588;SDS011;11972;48.078;11.876;2023-02-01T17:14:27;3.75;;;1.25;;
23588;SDS011;11972;48.078;11.876;2023-02-01T17:18:30;4.53;;;1.85;;
23588;SDS011;11972;48.078;11.876;2023-02-01T17:22:33;4.68;;;1.33;;
23588;SDS011;11972;48.078;11.876;2023-02-01T17:26:33;4.60;;;1.20;;
23588;SDS011;11972;48.078;11.876;2023-02-01T17:30:34;4.20;;;1.20;;
23588;SDS011;11972;48.078;11.876;2023-02-01T17:34:35;3.95;;;1.00;;
23588;SDS011;11972;48.078;11.876;2023-02-01T17:38:35;2.72;;;1.20;;
23588;SDS011;11972;48.078;11.876;2023-02-01T17:42:35;2.97;;;1.13;;
23588;SDS011;11972;48.078;11.876;2023-02-01T17:46:36;2.47;;;1.00;;
23588;SDS011;11972;48.078;11.876;2023-02-01T17:50:36;3.75;;;1.00;;
23588;SDS011;11972;48.078;11.876;2023-02-01T17:54:38;2.40;;;1.13;;
23588;SDS011;11972;48.078;11.876;2023-02-01T17:58:38;4.80;;;1.38;;
23588;SDS011;11972;48.078;11.876;2023-02-01T18:02:38;3.38;;;1.00;;
23588;SDS011;11972;48.078;11.876;2023-02-01T18:06:39;2.45;;;0.93;;
23588;SDS011;11972;48.078;11.876;2023-02-01T18:10:39;3.63;;;1.35;;
23588;SDS011;11972;48.078;11.876;2023-02-01T18:14:40;3.97;;;1.67;;
23588;SDS011;11972;48.078;11.876;2023-02-01T18:18:40;2.60;;;0.93;;
23588;SDS011;11972;48.078;11.876;2023-02-01T18:22:41;5.03;;;1.10;;
23588;SDS011;11972;48.078;11.876;2023-02-01T18:26:42;5.28;;;1.40;;
23588;SDS011;11972;48.078;11.876;2023-02-01T18:30:43;4.38;;;1.25;;
23588;SDS011;11972;48.078;11.876;2023-02-01T18:34:45;4.57;;;1.38;;
23588;SDS011;11972;48.078;11.876;2023-02-01T18:38:46;3.80;;;1.30;;
23588;SDS011;11972;48.078;11.876;2023-02-01T18:42:46;3.58;;;1.13;;
23588;SDS011;11972;48.078;11.876;2023-02-01T18:46:47;3.80;;;1.10;;
23588;SDS011;11972;48.078;11.876;2023-02-01T18:50:48;3.25;;;1.77;;
23588;SDS011;11972;48.078;11.876;2023-02-01T18:54:50;4.28;;;1.50;;
23588;SDS011;11972;48.078;11.876;2023-02-01T18:58:51;4.82;;;1.58;;
23588;SDS011;11972;48.078;11.876;2023-02-01T19:02:51;5.85;;;1.52;;
23588;SDS011;11972;48.078;11.876;2023-02-01T19:06:52;1.50;;;0.80;;
23588;SDS011;11972;48.078;11.876;2023-02-01T19:10:52;5.93;;;1.23;;
23588;SDS011;11972;48.078;11.876;2023-02-01T19:14:53;5.13;;;1.25;;
23588;SDS011;11972;48.078;11.876;2023-02-01T19:18:53;3.70;;;1.23;;
23588;SDS011;11972;48.078;11.876;2023-02-01T19:22:54;5.82;;;1.15;;
23588;SDS011;11972;48.078;11.876;2023-02-01T19:26:54;2.97;;;0.80;;
23588;SDS011;11972;48.078;11.876;2023-02-01T19:30:59;6.18;;;2.15;;
23588;SDS011;11972;48.078;11.876;2023-02-01T19:35:01;5.05;;;1.25;;
23588;SDS011;11972;48.078;11.876;2023-02-01T19:39:02;4.70;;;1.42;;
23588;SDS011;11972;48.078;11.876;2023-02-01T19:43:02;2.97;;;1.20;;
23588;SDS011;11972;48.078;11.876;2023-02-01T19:47:02;3.05;;;0.85;;
23588;SDS011;11972;48.078;11.876;2023-02-01T19:51:03;2.97;;;0.98;;
23588;SDS011;11972;48.078;11.876;2023-02-01T19:55:04;2.85;;;1.17;;
23588;SDS011;11972;48.078;11.876;2023-02-01T19:59:04;4.47;;;1.48;;
23588;SDS011;11972;48.078;11.876;2023-02-01T20:03:05;5.03;;;1.50;;
23588;SDS011;11972;48.078;11.876;2023-02-01T20:07:05;3.38;;;1.05;;
23588;SDS011;11972;48.078;11.876;2023-02-01T20:11:06;5.80;;;0.93;;
23588;SDS011;11972;48.078;11.876;2023-02-01T20:15:07;5.70;;;1.33;;
23588;SDS011;11972;48.078;11.876;2023-02-01T20:19:08;3.72;;;1.10;;
23588;SDS011;11972;48.078;11.876;2023-02-01T20:23:09;3.35;;;1.35;;
23588;SDS011;11972;48.078;11.876;2023-02-01T20:27:09;3.15;;;0.93;;
23588;SDS011;11972;48.078;11.876;2023-02-01T20:31:11;3.42;;;0.98;;
23588;SDS011;11972;48.078;11.876;2023-02-01T20:35:14;2.83;;;0.90;;
23588;SDS011;11972;48.078;11.876;2023-02-01T20:39:15;4.30;;;1.38;;
23588;SDS011;11972;48.078;11.876;2023-02-01T20:43:16;6.47;;;1.23;;
23588;SDS011;11972;48.078;11.876;2023-02-01T20:47:16;4.30;;;1.42;;
23588;SDS011;11972;48.078;11.876;2023-02-01T20:51:18;3.38;;;1.23;;
23588;SDS011;11972;48.078;11.876;2023-02-01T20:55:19;3.10;;;0.93;;
23588;SDS011;11972;48.078;11.876;2023-02-01T20:59:19;3.22;;;0.80;;
23588;SDS011;11972;48.078;11.876;2023-02-01T21:03:20;4.15;;;1.00;;
23588;SDS011;11972;48.078;11.876;2023-02-01T21:07:22;3.95;;;1.45;;
23588;SDS011;11972;48.078;11.876;2023-02-01T21:11:22;5.13;;;1.02;;
23588;SDS011;11972;48.078;11.876;2023-02-01T21:15:22;5.38;;;1.77;;
23588;SDS011;11972;48.078;11.876;2023-02-01T21:19:25;4.60;;;1.13;;
23588;SDS011;11972;48.078;11.876;2023-02-01T21:23:25;3.30;;;1.10;;
23588;SDS011;11972;48.078;11.876;2023-02-01T21:27:26;4.35;;;1.60;;
23588;SDS011;11972;48.078;11.876;2023-02-01T21:31:26;4.80;;;1.60;;
23588;SDS011;11972;48.078;11.876;2023-02-01T21:35:27;4.20;;;1.30;;
23588;SDS011;11972;48.078;11.876;2023-02-01T21:39:27;6.10;;;1.55;;
23588;SDS011;11972;48.078;11.876;2023-02-01T21:47:47;5.97;;;1.15;;
23588;SDS011;11972;48.078;11.876;2023-02-01T21:51:47;4.78;;;1.30;;
23588;SDS011;11972;48.078;11.876;2023-02-01T21:55:47;4.18;;;1.33;;
23588;SDS011;11972;48.078;11.876;2023-02-01T21:59:48;3.03;;;1.10;;
23588;SDS011;11972;48.078;11.876;2023-02-01T22:03:48;2.25;;;1.00;;
23588;SDS011;11972;48.078;11.876;2023-02-01T22:07:48;3.10;;;0.95;;
23588;SDS011;11972;48.078;11.876;2023-02-01T22:11:49;4.13;;;1.00;;
23588;SDS011;11972;48.078;11.876;2023-02-01T22:15:51;3.50;;;1.17;;
23588;SDS011;11972;48.078;11.876;2023-02-01T22:19:51;5.80;;;1.40;;
23588;SDS011;11972;48.078;11.876;2023-02-01T22:23:52;5.82;;;1.20;;
23588;SDS011;11972;48.078;11.876;2023-02-01T22:27:54;6.60;;;1.15;;
23588;SDS011;11972;48.078;11.876;2023-02-01T22:31:54;3.60;;;1.17;;
23588;SDS011;11972;48.078;11.876;2023-02-01T22:35:55;5.82;;;1.42;;
23588;SDS011;11972;48.078;11.876;2023-02-01T22:39:55;3.30;;;1.33;;
23588;SDS011;11972;48.078;11.876;2023-02-01T22:43:57;4.30;;;1.20;;
23588;SDS011;11972;48.078;11.876;2023-02-01T22:47:59;4.43;;;1.38;;
23588;SDS011;11972;48.078;11.876;2023-02-01T22:51:59;3.33;;;1.20;;
23588;SDS011;11972;48.078;11.876;2023-02-01T22:56:03;5.35;;;1.65;;
23588;SDS011;11972;48.078;11.876;2023-02-01T23:00:05;5.88;;;1.20;;
23588;SDS011;11972;48.078;11.876;2023-02-01T23:04:08;2.90;;;1.00;;
23588;SDS011;11972;48.078;11.876;2023-02-01T23:08:12;4.45;;;1.15;;
23588;SDS011;11972;48.078;11.876;2023-02-01T23:12:12;6.68;;;1.60;;
23588;SDS011;11972;48.078;11.876;2023-02-01T23:16:12;6.70;;;1.30;;
23588;SDS011;11972;48.078;11.876;2023-02-01T23:20:14;5.47;;;1.40;;
23588;SDS011;11972;48.078;11.876;2023-02-01T23:24:16;4.22;;;0.90;;
23588;SDS011;11972;48.078;11.876;2023-02-01T23:28:16;3.45;;;1.20;;
23588;SDS011;11972;48.078;11.876;2023-02-01T23:32:16;5.95;;;1.50;;
23588;SDS011;11972;48.078;11.876;2023-02-01T23:36:17;3.55;;;1.05;;
23588;SDS011;11972;48.078;11.876;2023-02-01T23:40:18;3.70;;;1.17;;
23588;SDS011;11972;48.078;11.876;2023-02-01T23:44:18;4.70;;;1.40;;
23588;SDS011;11972;48.078;11.876;2023-02-01T23:48:18;4.80;;;1.02;;
23588;SDS011;11972;48.078;11.876;2023-02-01T23:52:19;4.95;;;1.17;;
23588;SDS011;11972;48.078;11.876;2023-02-01T23:56:22;5.53;;;1.52;;
